createdAt,value
2023-08-12T00:03:38.071Z,15.00
2023-08-12T00:08:45.040Z,17.10
2023-08-12T00:13:52.169Z,16.40
2023-08-12T00:18:59.552Z,17.40
2023-08-12T00:24:07.181Z,17.50
2023-08-12T00:29:14.104Z,16.10
2023-08-12T00:34:21.220Z,16.40
2023-08-12T00:39:28.302Z,14.30
2023-08-12T00:44:36.152Z,15.70
2023-08-12T00:49:46.729Z,17.50
2023-08-12T00:54:54.602Z,15.30
2023-08-12T01:00:02.619Z,17.90
2023-08-12T01:05:10.534Z,16.60
2023-08-12T01:10:21.675Z,18.10
2023-08-12T01:15:29.016Z,18.20
2023-08-12T01:20:36.934Z,18.10
2023-08-12T01:25:44.431Z,19.20
2023-08-12T01:30:59.023Z,17.60
2023-08-12T01:36:16.529Z,18.70
2023-08-12T01:41:25.431Z,21.70
2023-08-12T01:46:33.226Z,20.20
2023-08-12T01:51:40.354Z,18.60
2023-08-12T01:56:47.333Z,19.80
2023-08-12T02:01:55.363Z,17.30
2023-08-12T02:07:03.840Z,18.60
2023-08-12T02:12:11.190Z,16.50
2023-08-12T02:17:18.087Z,20.60
2023-08-12T02:22:28.099Z,17.20
2023-08-12T02:27:39.492Z,19.30
2023-08-12T02:32:48.991Z,16.00
2023-08-12T02:37:57.076Z,15.50
2023-08-12T02:43:04.329Z,17.30
2023-08-12T02:48:17.396Z,16.00
2023-08-12T02:53:26.621Z,16.30
2023-08-12T02:58:33.941Z,17.40
2023-08-12T03:03:40.922Z,16.60
2023-08-12T03:08:49.231Z,14.90
2023-08-12T03:13:58.108Z,16.60
2023-08-12T03:19:06.960Z,15.70
2023-08-12T03:24:19.570Z,17.20
2023-08-12T03:29:31.800Z,17.10
2023-08-12T03:34:43.663Z,18.30
2023-08-12T03:44:57.662Z,17.00
2023-08-12T03:50:08.532Z,18.70
2023-08-12T03:55:16.046Z,17.00
2023-08-12T04:00:23.415Z,17.00
2023-08-12T04:05:36.430Z,16.50
2023-08-12T04:10:46.184Z,15.60
2023-08-12T04:15:54.778Z,17.10
2023-08-12T04:21:03.048Z,19.90
2023-08-12T04:26:10.598Z,17.50
2023-08-12T04:31:17.693Z,20.20
2023-08-12T04:36:25.192Z,15.60
2023-08-12T04:41:34.991Z,26.10
2023-08-12T04:46:45.958Z,19.00
2023-08-12T04:51:55.026Z,15.80
2023-08-12T04:57:02.381Z,15.80
2023-08-12T05:02:09.483Z,15.60
2023-08-12T05:07:16.746Z,14.70
2023-08-12T05:12:23.746Z,27.30
2023-08-12T05:17:34.005Z,18.00
2023-08-12T05:22:41.993Z,13.60
2023-08-12T05:27:48.912Z,16.20
2023-08-12T05:32:55.848Z,13.30
2023-08-12T05:38:02.852Z,14.90
2023-08-12T05:43:09.714Z,13.80
2023-08-12T05:48:16.559Z,13.00
2023-08-12T05:53:25.392Z,10.00
2023-08-12T05:58:32.300Z,12.10
2023-08-12T06:03:39.294Z,15.80
2023-08-12T06:08:46.275Z,9.00
2023-08-12T06:13:53.082Z,9.30
2023-08-12T06:18:59.972Z,11.80
2023-08-12T06:24:07.674Z,8.00
2023-08-12T06:29:14.872Z,8.70
2023-08-12T06:34:21.671Z,8.30
2023-08-12T06:39:29.801Z,8.70
2023-08-12T06:44:36.743Z,6.20
2023-08-12T06:49:43.701Z,6.50
2023-08-12T06:54:50.854Z,9.30
2023-08-12T06:59:58.239Z,8.60
2023-08-12T07:05:05.607Z,9.40
2023-08-12T07:10:14.045Z,6.20
2023-08-12T07:15:21.134Z,6.30
2023-08-12T07:20:28.115Z,9.90
2023-08-12T07:25:37.858Z,7.00
2023-08-12T07:30:47.528Z,8.00
2023-08-12T07:35:55.532Z,8.40
2023-08-12T07:41:03.262Z,6.50
2023-08-12T07:46:13.418Z,15.40
2023-08-12T07:51:20.432Z,5.80
2023-08-12T07:56:30.065Z,8.20
2023-08-12T08:01:39.147Z,4.40
2023-08-12T08:06:47.593Z,8.50
2023-08-12T08:11:57.268Z,4.90
2023-08-12T08:17:14.529Z,5.80
2023-08-12T08:22:23.760Z,8.40
2023-08-12T08:27:30.854Z,4.80
2023-08-12T08:32:38.014Z,5.10
2023-08-12T08:37:46.229Z,4.50
2023-08-12T08:42:57.915Z,9.10
2023-08-12T08:48:10.088Z,5.90
2023-08-12T08:53:18.304Z,7.50
2023-08-12T08:58:28.621Z,3.50
2023-08-12T09:03:37.976Z,6.20
2023-08-12T09:08:50.964Z,4.50
2023-08-12T09:13:58.110Z,6.50
2023-08-12T09:19:06.007Z,6.00
2023-08-12T09:24:17.437Z,4.00
2023-08-12T09:29:31.290Z,3.60
2023-08-12T09:34:38.494Z,6.40
2023-08-12T09:39:46.296Z,4.40
2023-08-12T09:44:53.475Z,4.90
2023-08-12T09:50:00.880Z,7.40
2023-08-12T09:55:10.456Z,5.10
2023-08-12T10:05:29.565Z,10.20
2023-08-12T10:10:38.565Z,8.90
2023-08-12T10:15:46.429Z,5.70
2023-08-12T10:20:56.581Z,9.20
2023-08-12T10:26:09.216Z,6.50
2023-08-12T10:31:16.501Z,5.60
2023-08-12T10:36:25.264Z,4.10
2023-08-12T10:41:38.084Z,6.50
2023-08-12T10:46:53.857Z,5.50
2023-08-12T10:52:00.774Z,4.60
2023-08-12T10:57:14.538Z,4.80
2023-08-12T11:02:22.792Z,4.50
2023-08-12T11:07:39.751Z,4.50
2023-08-12T11:12:59.171Z,3.30
2023-08-12T11:18:08.183Z,4.00
2023-08-12T11:28:21.988Z,6.80
2023-08-12T11:33:28.964Z,8.40
2023-08-12T11:38:36.107Z,4.20
2023-08-12T11:43:43.369Z,9.40
2023-08-12T11:48:51.890Z,4.00
2023-08-12T11:59:06.303Z,8.30
2023-08-12T12:04:15.895Z,6.80
2023-08-12T12:09:24.484Z,3.40
2023-08-12T12:14:32.531Z,2.40
2023-08-12T12:19:42.425Z,3.20
2023-08-12T12:24:49.923Z,3.60
2023-08-12T12:29:56.947Z,4.20
2023-08-12T12:35:04.513Z,14.30
2023-08-12T12:40:14.560Z,4.50
2023-08-12T12:45:21.965Z,3.30
2023-08-12T12:50:29.654Z,2.70
2023-08-12T12:55:37.186Z,3.90
2023-08-12T13:00:44.215Z,3.10
2023-08-12T13:05:55.072Z,4.30
2023-08-12T13:11:02.846Z,5.70
2023-08-12T13:16:14.967Z,4.20
2023-08-12T13:21:25.115Z,8.60
2023-08-12T13:26:35.757Z,6.30
2023-08-12T13:31:43.354Z,5.90
2023-08-12T13:36:50.989Z,5.50
2023-08-12T13:42:00.694Z,3.30
2023-08-12T13:47:08.396Z,5.10
2023-08-12T13:52:18.168Z,5.60
2023-08-12T13:57:27.176Z,5.60
2023-08-12T14:02:37.208Z,3.50
2023-08-12T14:07:45.704Z,5.80
2023-08-12T14:12:53.473Z,5.70
2023-08-12T14:18:01.398Z,6.10
2023-08-12T14:23:11.694Z,6.00
2023-08-12T14:28:19.049Z,4.60
2023-08-12T14:33:27.248Z,2.50
2023-08-12T14:38:36.625Z,3.80
2023-08-12T14:43:43.779Z,3.30
2023-08-12T14:48:54.892Z,3.10
2023-08-12T14:54:02.261Z,7.20
2023-08-12T14:59:09.435Z,5.80
2023-08-12T15:04:17.759Z,4.80
2023-08-12T15:09:25.009Z,4.10
2023-08-12T15:14:33.491Z,2.90
2023-08-12T15:19:40.861Z,5.20
2023-08-12T15:24:47.885Z,4.60
2023-08-12T15:29:55.118Z,3.60
2023-08-12T15:35:03.354Z,7.60
2023-08-12T15:40:12.881Z,8.20
2023-08-12T15:45:20.987Z,2.80
2023-08-12T15:50:32.127Z,4.40
2023-08-12T15:55:39.922Z,7.00
2023-08-12T16:00:49.897Z,3.30
2023-08-12T16:06:00.609Z,2.60
2023-08-12T16:11:10.564Z,4.20
2023-08-12T16:16:18.235Z,9.00
2023-08-12T16:21:26.550Z,6.20
2023-08-12T16:26:36.620Z,6.00
2023-08-12T16:31:43.728Z,3.90
2023-08-12T16:37:02.072Z,2.80
2023-08-12T16:42:18.622Z,4.90
2023-08-12T16:47:26.906Z,5.40
2023-08-12T16:52:34.275Z,9.00
2023-08-12T16:57:41.442Z,3.10
2023-08-12T17:07:54.054Z,7.60
2023-08-12T17:13:01.148Z,26.70
2023-08-12T17:18:09.388Z,5.20
2023-08-12T17:23:16.339Z,8.00
2023-08-12T17:28:23.481Z,68.60
2023-08-12T17:33:30.636Z,32.30
2023-08-12T17:38:38.066Z,74.60
2023-08-12T17:43:46.642Z,72.70
2023-08-12T17:48:54.160Z,40.20
2023-08-12T17:54:01.202Z,35.60
2023-08-12T17:59:08.478Z,23.90
2023-08-12T18:04:17.690Z,10.50
2023-08-12T18:09:24.682Z,8.60
2023-08-12T18:14:32.436Z,7.10
2023-08-12T18:19:39.722Z,8.90
2023-08-12T18:24:49.208Z,9.30
2023-08-12T18:29:57.660Z,7.20
2023-08-12T18:35:05.124Z,11.30
2023-08-12T18:40:13.538Z,10.70
2023-08-12T18:45:20.898Z,8.90
2023-08-12T18:50:33.381Z,8.90
2023-08-12T18:55:40.291Z,11.50
2023-08-12T19:00:47.356Z,8.30
2023-08-12T19:05:59.989Z,20.00
2023-08-12T19:11:06.991Z,16.80
2023-08-12T19:16:14.054Z,17.20
2023-08-12T19:21:21.108Z,7.40
2023-08-12T19:26:28.000Z,11.80
2023-08-12T19:31:35.090Z,13.10
2023-08-12T19:36:41.988Z,6.10
2023-08-12T19:41:51.564Z,6.00
2023-08-12T19:47:01.818Z,7.70
2023-08-12T19:52:09.494Z,5.60
2023-08-12T19:57:18.189Z,6.20
2023-08-12T20:02:37.697Z,8.70
2023-08-12T20:07:48.606Z,11.20
2023-08-12T20:13:01.265Z,10.80
2023-08-12T20:18:16.281Z,5.80
2023-08-12T20:23:24.900Z,12.40
2023-08-12T20:28:32.028Z,13.00
2023-08-12T20:33:39.636Z,4.90
2023-08-12T20:38:46.940Z,13.80
2023-08-12T20:43:53.923Z,10.50
2023-08-12T20:49:03.133Z,9.60
2023-08-12T20:54:10.014Z,10.30
2023-08-12T20:59:17.012Z,11.40
2023-08-12T21:04:24.438Z,6.90
2023-08-12T21:09:32.789Z,15.00
2023-08-12T21:14:39.868Z,8.60
2023-08-12T21:19:46.796Z,13.80
2023-08-12T21:24:53.651Z,6.40
2023-08-12T21:30:01.049Z,11.20
2023-08-12T21:35:09.359Z,12.60
2023-08-12T21:40:17.803Z,7.40
2023-08-12T21:45:26.886Z,12.70
2023-08-12T21:55:40.687Z,15.10
2023-08-12T22:00:48.277Z,12.80
2023-08-12T22:05:56.195Z,11.60
2023-08-12T22:11:03.780Z,13.80
2023-08-12T22:16:10.836Z,10.80
2023-08-12T22:21:18.187Z,10.70
2023-08-12T22:26:25.081Z,9.20
2023-08-12T22:31:32.299Z,7.20
2023-08-12T22:36:39.770Z,6.50
2023-08-12T22:41:47.042Z,9.00
2023-08-12T22:46:54.162Z,14.90
2023-08-12T22:52:01.025Z,14.50
2023-08-12T22:57:08.477Z,8.00
2023-08-12T23:02:15.839Z,18.10
2023-08-12T23:07:23.263Z,10.20
2023-08-12T23:12:30.909Z,9.20
2023-08-12T23:17:38.006Z,8.20
2023-08-12T23:22:45.098Z,8.60
2023-08-12T23:27:52.036Z,8.10
2023-08-12T23:32:58.959Z,9.60
2023-08-12T23:38:06.118Z,5.50
2023-08-12T23:43:13.165Z,5.60
2023-08-12T23:48:21.891Z,5.50
2023-08-12T23:53:29.452Z,6.50
2023-08-12T23:58:36.535Z,13.10
